createdAt,value
2023-04-01T00:01:06.828Z,7.02
2023-04-01T00:05:11.436Z,7.03
2023-04-01T00:09:15.576Z,7.01
2023-04-01T00:13:18.470Z,7.03
2023-04-01T00:17:21.131Z,7.00
2023-04-01T00:21:24.377Z,6.96
2023-04-01T00:25:28.383Z,6.92
2023-04-01T00:29:31.705Z,6.92
2023-04-01T00:33:34.650Z,6.93
2023-04-01T00:37:38.655Z,6.99
2023-04-01T00:41:42.797Z,6.99
2023-04-01T00:45:47.513Z,6.96
2023-04-01T00:49:53.196Z,6.95
2023-04-01T00:53:58.903Z,6.97
2023-04-01T00:58:06.106Z,6.95
2023-04-01T01:02:12.949Z,6.95
2023-04-01T01:06:40.005Z,6.96
2023-04-01T01:10:48.282Z,6.94
2023-04-01T01:14:57.526Z,6.89
2023-04-01T01:19:11.530Z,6.88
2023-04-01T01:23:58.573Z,6.94
2023-04-01T01:28:16.685Z,6.91
2023-04-01T01:32:42.186Z,7.00
2023-04-01T01:36:49.743Z,7.00
2023-04-01T01:40:55.358Z,6.96
2023-04-01T01:45:01.650Z,6.95
2023-04-01T01:49:07.530Z,6.93
2023-04-01T01:53:13.496Z,6.94
2023-04-01T01:57:20.050Z,6.95
2023-04-01T02:01:26.725Z,6.93
2023-04-01T02:05:32.654Z,6.92
2023-04-01T02:09:37.649Z,6.94
2023-04-01T02:13:45.141Z,6.91
2023-04-01T02:17:49.857Z,6.88
2023-04-01T02:21:57.446Z,6.86
2023-04-01T02:26:01.907Z,6.86
2023-04-01T02:30:05.601Z,6.91
2023-04-01T02:34:08.635Z,6.88
2023-04-01T02:38:11.367Z,6.85
2023-04-01T02:42:15.555Z,6.82
2023-04-01T02:46:18.862Z,6.81
2023-04-01T02:50:21.547Z,6.75
2023-04-01T02:54:24.162Z,6.77
2023-04-01T02:58:28.180Z,6.74
2023-04-01T03:02:30.927Z,6.70
2023-04-01T03:06:33.875Z,6.68
2023-04-01T03:10:36.530Z,6.64
2023-04-01T03:14:40.513Z,6.59
2023-04-01T03:18:43.333Z,6.58
2023-04-01T03:22:46.842Z,6.53
2023-04-01T03:26:49.474Z,6.48
2023-04-01T03:30:53.502Z,6.40
2023-04-01T03:34:56.162Z,6.37
2023-04-01T03:38:58.839Z,6.30
2023-04-01T03:43:01.706Z,6.28
2023-04-01T03:47:05.803Z,6.29
2023-04-01T03:51:09.216Z,6.25
2023-04-01T03:55:12.001Z,6.25
2023-04-01T03:59:14.896Z,6.22
2023-04-01T04:03:18.970Z,6.18
2023-04-01T04:07:21.669Z,6.21
2023-04-01T04:11:24.814Z,6.18
2023-04-01T04:15:27.475Z,6.12
2023-04-01T04:19:35.825Z,6.13
2023-04-01T04:23:38.516Z,6.17
2023-04-01T04:27:41.345Z,6.18
2023-04-01T04:31:44.686Z,6.18
2023-04-01T04:35:48.784Z,6.21
2023-04-01T04:39:51.427Z,6.16
2023-04-01T04:43:55.946Z,6.21
2023-04-01T04:47:58.638Z,6.20
2023-04-01T04:52:02.710Z,6.22
2023-04-01T04:56:05.510Z,6.25
2023-04-01T05:00:10.994Z,6.31
2023-04-01T05:04:13.596Z,6.32
2023-04-01T05:08:17.597Z,6.36
2023-04-01T05:12:20.429Z,6.34
2023-04-01T05:16:23.141Z,6.35
2023-04-01T05:20:25.774Z,6.33
2023-04-01T05:24:29.835Z,6.40
2023-04-01T05:28:32.527Z,6.40
2023-04-01T05:32:35.231Z,6.43
2023-04-01T05:36:38.669Z,6.52
2023-04-01T05:40:42.672Z,6.59
2023-04-01T05:44:45.403Z,6.63
2023-04-01T05:48:48.159Z,6.71
2023-04-01T05:52:50.766Z,6.75
2023-04-01T05:56:54.930Z,6.79
2023-04-01T06:01:09.653Z,6.83
2023-04-01T06:05:19.652Z,6.87
2023-04-01T06:09:28.314Z,6.89
2023-04-01T06:13:47.274Z,6.93
2023-04-01T06:18:07.128Z,6.95
2023-04-01T06:22:42.033Z,6.97
2023-04-01T06:26:52.074Z,7.02
2023-04-01T06:31:06.505Z,7.05
2023-04-01T06:35:33.963Z,7.08
2023-04-01T06:40:02.124Z,7.17
2023-04-01T06:44:17.084Z,7.20
2023-04-01T06:48:39.492Z,7.27
2023-04-01T06:52:49.456Z,7.38
2023-04-01T06:57:00.226Z,7.46
2023-04-01T07:01:05.929Z,7.56
2023-04-01T07:05:13.105Z,7.71
2023-04-01T07:09:20.526Z,7.79
2023-04-01T07:13:28.304Z,7.82
2023-04-01T07:17:34.736Z,7.92
2023-04-01T07:21:44.901Z,7.98
2023-04-01T07:25:51.969Z,7.96
2023-04-01T07:29:58.452Z,8.01
2023-04-01T07:34:10.943Z,8.15
2023-04-01T07:38:28.091Z,8.38
2023-04-01T07:42:42.876Z,8.54
2023-04-01T07:46:57.839Z,8.57
2023-04-01T07:51:04.677Z,8.70
2023-04-01T07:55:15.175Z,9.03
2023-04-01T07:59:25.296Z,9.10
2023-04-01T08:03:38.100Z,8.89
2023-04-01T08:07:50.133Z,8.98
2023-04-01T08:12:05.019Z,8.93
2023-04-01T08:16:15.681Z,8.97
2023-04-01T08:20:30.866Z,9.15
2023-04-01T08:24:47.169Z,9.07
2023-04-01T08:28:57.049Z,9.48
2023-04-01T08:33:07.181Z,9.46
2023-04-01T08:37:14.399Z,9.65
2023-04-01T08:41:50.651Z,9.44
2023-04-01T08:46:09.444Z,9.74
2023-04-01T08:50:40.019Z,9.96
2023-04-01T08:54:58.952Z,9.75
2023-04-01T08:59:24.072Z,9.67
2023-04-01T09:03:53.985Z,9.48
2023-04-01T09:08:07.513Z,9.50
2023-04-01T09:12:26.021Z,9.54
2023-04-01T09:16:59.069Z,9.56
2023-04-01T09:21:29.940Z,9.53
2023-04-01T09:25:48.435Z,9.53
2023-04-01T09:30:10.437Z,9.62
2023-04-01T09:34:33.442Z,9.55
2023-04-01T09:38:54.090Z,9.63
2023-04-01T09:43:19.406Z,9.84
2023-04-01T09:47:36.335Z,9.86
2023-04-01T09:51:45.220Z,9.98
2023-04-01T09:56:36.820Z,10.05
2023-04-01T10:01:30.226Z,9.90
2023-04-01T10:06:05.891Z,10.02
2023-04-01T10:10:49.087Z,10.15
2023-04-01T10:15:32.720Z,9.81
2023-04-01T10:20:04.265Z,9.87
2023-04-01T10:24:45.916Z,9.81
2023-04-01T10:29:21.085Z,9.77
2023-04-01T10:34:10.362Z,9.85
2023-04-01T10:38:43.370Z,9.96
2023-04-01T10:43:41.324Z,10.18
2023-04-01T10:48:25.075Z,10.05
2023-04-01T10:53:06.120Z,10.21
2023-04-01T10:57:28.557Z,10.25
2023-04-01T11:02:12.274Z,10.30
2023-04-01T11:07:02.270Z,10.25
2023-04-01T11:11:49.107Z,10.32
2023-04-01T11:16:36.819Z,10.43
2023-04-01T11:21:07.036Z,10.45
2023-04-01T11:25:42.021Z,10.48
2023-04-01T11:30:00.923Z,10.21
2023-04-01T11:34:13.946Z,9.83
2023-04-01T11:38:42.338Z,9.72
2023-04-01T11:42:51.974Z,9.38
2023-04-01T11:47:15.356Z,9.16
2023-04-01T11:51:55.952Z,8.83
2023-04-01T11:56:17.952Z,8.68
2023-04-01T12:00:55.950Z,8.51
2023-04-01T12:05:38.946Z,8.33
2023-04-01T12:09:52.133Z,8.14
2023-04-01T12:14:01.847Z,8.15
2023-04-01T12:18:14.890Z,8.18
2023-04-01T12:22:42.457Z,8.14
2023-04-01T12:26:57.466Z,8.15
2023-04-01T12:31:15.006Z,8.10
2023-04-01T12:35:23.900Z,8.12
2023-04-01T12:39:51.335Z,8.17
2023-04-01T12:44:18.763Z,8.27
2023-04-01T12:48:54.967Z,8.22
2023-04-01T12:53:12.464Z,8.21
2023-04-01T12:57:31.447Z,8.15
2023-04-01T13:02:07.325Z,8.05
2023-04-01T13:06:42.179Z,7.95
2023-04-01T13:11:02.552Z,7.99
2023-04-01T13:15:25.035Z,7.92
2023-04-01T13:19:33.135Z,7.98
2023-04-01T13:23:49.106Z,7.98
2023-04-01T13:27:58.544Z,8.00
2023-04-01T13:32:15.828Z,8.14
2023-04-01T13:36:29.203Z,8.15
2023-04-01T13:40:49.353Z,8.10
2023-04-01T13:45:04.557Z,8.10
2023-04-01T13:49:35.875Z,8.04
2023-04-01T13:54:00.168Z,8.07
2023-04-01T13:58:28.172Z,8.02
2023-04-01T14:02:49.050Z,7.97
2023-04-01T14:07:02.813Z,8.10
2023-04-01T14:11:18.891Z,8.13
2023-04-01T14:15:43.948Z,8.24
2023-04-01T14:20:04.645Z,8.23
2023-04-01T14:24:27.179Z,8.26
2023-04-01T14:28:39.095Z,8.28
2023-04-01T14:32:51.416Z,8.28
2023-04-01T14:37:22.719Z,8.36
2023-04-01T14:41:38.852Z,8.35
2023-04-01T14:46:08.642Z,8.32
2023-04-01T14:50:17.275Z,8.28
2023-04-01T14:54:24.478Z,8.27
2023-04-01T14:58:40.952Z,8.26
2023-04-01T15:02:53.761Z,8.30
2023-04-01T15:07:17.531Z,8.25
2023-04-01T15:11:30.892Z,8.21
2023-04-01T15:15:41.561Z,8.26
2023-04-01T15:19:59.100Z,8.23
2023-04-01T15:24:11.244Z,8.23
2023-04-01T15:28:27.011Z,8.35
2023-04-01T15:32:41.531Z,8.43
2023-04-01T15:36:53.003Z,8.57
2023-04-01T15:41:04.957Z,8.57
2023-04-01T15:45:20.239Z,8.52
2023-04-01T15:49:38.594Z,8.56
2023-04-01T15:53:57.239Z,8.58
2023-04-01T15:58:25.241Z,8.59
2023-04-01T16:02:35.188Z,8.57
2023-04-01T16:06:50.750Z,8.57
2023-04-01T16:11:10.840Z,8.57
2023-04-01T16:15:27.126Z,8.50
2023-04-01T16:19:39.691Z,8.39
2023-04-01T16:23:44.607Z,8.37
2023-04-01T16:27:56.544Z,8.36
2023-04-01T16:32:22.767Z,8.44
2023-04-01T16:36:31.144Z,8.44
2023-04-01T16:40:44.753Z,8.34
2023-04-01T16:44:56.467Z,8.31
2023-04-01T16:49:15.657Z,8.26
2023-04-01T16:53:22.200Z,8.25
2023-04-01T16:57:30.064Z,8.22
2023-04-01T17:01:44.570Z,8.22
2023-04-01T17:06:03.194Z,8.20
2023-04-01T17:10:30.057Z,8.31
2023-04-01T17:14:43.846Z,8.27
2023-04-01T17:18:58.386Z,8.10
2023-04-01T17:23:10.389Z,8.01
2023-04-01T17:27:25.729Z,7.95
2023-04-01T17:31:44.390Z,7.90
2023-04-01T17:35:56.736Z,7.88
2023-04-01T17:40:17.780Z,7.83
2023-04-01T17:44:35.904Z,7.75
2023-04-01T17:48:51.169Z,7.71
2023-04-01T17:53:07.941Z,7.64
2023-04-01T17:57:36.086Z,7.63
2023-04-01T18:01:49.694Z,7.62
2023-04-01T18:06:06.130Z,7.57
2023-04-01T18:10:31.427Z,7.55
2023-04-01T18:14:51.158Z,7.52
2023-04-01T18:19:03.831Z,7.54
2023-04-01T18:23:13.328Z,7.51
2023-04-01T18:27:20.135Z,7.54
2023-04-01T18:31:27.582Z,7.48
2023-04-01T18:35:47.037Z,7.51
2023-04-01T18:39:52.779Z,7.47
2023-04-01T18:44:06.050Z,7.48
2023-04-01T18:48:36.252Z,7.48
2023-04-01T18:52:42.695Z,7.52
2023-04-01T18:56:47.270Z,7.49
2023-04-01T19:00:59.158Z,7.49
2023-04-01T19:05:08.077Z,7.53
2023-04-01T19:09:28.782Z,7.55
2023-04-01T19:13:40.896Z,7.57
2023-04-01T19:17:56.454Z,7.55
2023-04-01T19:22:16.008Z,7.55
2023-04-01T19:26:26.138Z,7.53
2023-04-01T19:30:43.848Z,7.53
2023-04-01T19:34:56.766Z,7.54
2023-04-01T19:39:18.128Z,7.54
2023-04-01T19:43:40.306Z,7.55
2023-04-01T19:47:55.580Z,7.51
2023-04-01T19:52:04.542Z,7.53
2023-04-01T19:56:17.856Z,7.46
2023-04-01T20:00:28.005Z,7.45
2023-04-01T20:04:35.581Z,7.50
2023-04-01T20:08:44.237Z,7.49
2023-04-01T20:12:56.409Z,7.48
2023-04-01T20:17:09.682Z,7.53
2023-04-01T20:21:29.155Z,7.49
2023-04-01T20:25:37.233Z,7.48
2023-04-01T20:29:54.084Z,7.45
2023-04-01T20:34:25.340Z,7.46
2023-04-01T20:38:49.348Z,7.44
2023-04-01T20:43:16.933Z,7.41
2023-04-01T20:47:32.009Z,7.39
2023-04-01T20:51:39.726Z,7.39
2023-04-01T20:56:14.532Z,7.40
2023-04-01T21:00:35.958Z,7.42
2023-04-01T21:04:57.088Z,7.42
2023-04-01T21:09:13.299Z,7.38
2023-04-01T21:13:30.396Z,7.42
2023-04-01T21:17:44.444Z,7.38
2023-04-01T21:22:17.419Z,7.38
2023-04-01T21:26:31.823Z,7.40
2023-04-01T21:30:49.381Z,7.38
2023-04-01T21:34:58.058Z,7.38
2023-04-01T21:39:17.448Z,7.36
2023-04-01T21:43:36.556Z,7.36
2023-04-01T21:48:15.001Z,7.32
2023-04-01T21:53:02.599Z,7.33
2023-04-01T21:57:45.036Z,7.33
2023-04-01T22:02:06.062Z,7.37
2023-04-01T22:06:19.813Z,7.30
2023-04-01T22:10:31.270Z,7.29
2023-04-01T22:14:43.498Z,7.33
2023-04-01T22:18:53.425Z,7.32
2023-04-01T22:23:09.897Z,7.31
2023-04-01T22:27:19.890Z,7.32
2023-04-01T22:31:29.914Z,7.29
2023-04-01T22:35:39.048Z,7.28
2023-04-01T22:40:02.036Z,7.26
2023-04-01T22:44:04.979Z,7.27
2023-04-01T22:48:14.566Z,7.24
2023-04-01T22:52:24.386Z,7.22
2023-04-01T22:56:33.468Z,7.22
2023-04-01T23:00:41.769Z,7.22
2023-04-01T23:04:50.974Z,7.19
2023-04-01T23:09:13.182Z,7.18
2023-04-01T23:13:21.650Z,7.19
2023-04-01T23:17:38.407Z,7.15
2023-04-01T23:21:46.743Z,7.16
2023-04-01T23:25:59.709Z,7.17
2023-04-01T23:30:02.713Z,7.20
2023-04-01T23:34:22.229Z,7.17
2023-04-01T23:38:28.111Z,7.18
2023-04-01T23:42:32.826Z,7.13
2023-04-01T23:46:37.302Z,7.14
2023-04-01T23:50:40.874Z,7.10
2023-04-01T23:54:50.351Z,7.08
2023-04-01T23:58:57.793Z,7.07
